sensor_id;sensor_type;location;lat;lon;timestamp;P1;durP1;ratioP1;P2;durP2;ratioP2
9974;SDS011;5028;50.974;4.968;2023-06-19T00:02:27;4.97;;;3.30;;
9974;SDS011;5028;50.974;4.968;2023-06-19T00:04:55;3.87;;;3.40;;
9974;SDS011;5028;50.974;4.968;2023-06-19T00:07:25;3.63;;;3.20;;
9974;SDS011;5028;50.974;4.968;2023-06-19T00:09:53;3.97;;;3.67;;
9974;SDS011;5028;50.974;4.968;2023-06-19T00:12:23;3.63;;;3.33;;
9974;SDS011;5028;50.974;4.968;2023-06-19T00:14:51;3.70;;;3.40;;
9974;SDS011;5028;50.974;4.968;2023-06-19T00:17:19;3.47;;;3.20;;
9974;SDS011;5028;50.974;4.968;2023-06-19T00:19:48;3.70;;;3.40;;
9974;SDS011;5028;50.974;4.968;2023-06-19T00:22:17;3.70;;;3.40;;
9974;SDS011;5028;50.974;4.968;2023-06-19T00:24:47;3.90;;;3.50;;
9974;SDS011;5028;50.974;4.968;2023-06-19T00:27:16;3.73;;;3.40;;
9974;SDS011;5028;50.974;4.968;2023-06-19T00:29:45;4.07;;;3.67;;
9974;SDS011;5028;50.974;4.968;2023-06-19T00:32:14;3.83;;;3.50;;
9974;SDS011;5028;50.974;4.968;2023-06-19T00:34:42;3.40;;;3.10;;
9974;SDS011;5028;50.974;4.968;2023-06-19T00:37:12;3.70;;;3.40;;
9974;SDS011;5028;50.974;4.968;2023-06-19T00:39:42;3.67;;;3.37;;
9974;SDS011;5028;50.974;4.968;2023-06-19T00:42:12;4.03;;;3.40;;
9974;SDS011;5028;50.974;4.968;2023-06-19T00:44:40;4.00;;;3.60;;
9974;SDS011;5028;50.974;4.968;2023-06-19T00:47:09;4.80;;;3.33;;
9974;SDS011;5028;50.974;4.968;2023-06-19T00:49:38;3.80;;;3.40;;
9974;SDS011;5028;50.974;4.968;2023-06-19T00:52:18;3.60;;;3.30;;
9974;SDS011;5028;50.974;4.968;2023-06-19T00:54:47;3.50;;;3.20;;
9974;SDS011;5028;50.974;4.968;2023-06-19T00:57:18;4.00;;;3.40;;
9974;SDS011;5028;50.974;4.968;2023-06-19T00:59:47;3.60;;;3.30;;
9974;SDS011;5028;50.974;4.968;2023-06-19T01:02:16;3.67;;;3.37;;
9974;SDS011;5028;50.974;4.968;2023-06-19T01:04:44;3.73;;;3.40;;
9974;SDS011;5028;50.974;4.968;2023-06-19T01:07:13;3.70;;;3.40;;
9974;SDS011;5028;50.974;4.968;2023-06-19T01:09:46;3.60;;;3.30;;
9974;SDS011;5028;50.974;4.968;2023-06-19T01:12:20;3.97;;;3.30;;
9974;SDS011;5028;50.974;4.968;2023-06-19T01:14:57;3.33;;;3.03;;
9974;SDS011;5028;50.974;4.968;2023-06-19T01:17:26;3.20;;;3.00;;
9974;SDS011;5028;50.974;4.968;2023-06-19T01:19:56;3.20;;;3.00;;
9974;SDS011;5028;50.974;4.968;2023-06-19T01:22:27;3.53;;;3.23;;
9974;SDS011;5028;50.974;4.968;2023-06-19T01:24:56;5.30;;;3.30;;
9974;SDS011;5028;50.974;4.968;2023-06-19T01:27:25;3.43;;;3.10;;
9974;SDS011;5028;50.974;4.968;2023-06-19T01:29:56;5.57;;;3.53;;
9974;SDS011;5028;50.974;4.968;2023-06-19T01:32:26;4.53;;;3.27;;
9974;SDS011;5028;50.974;4.968;2023-06-19T01:34:59;3.07;;;2.87;;
9974;SDS011;5028;50.974;4.968;2023-06-19T01:37:31;3.97;;;3.43;;
9974;SDS011;5028;50.974;4.968;2023-06-19T01:40:02;4.20;;;3.07;;
9974;SDS011;5028;50.974;4.968;2023-06-19T01:42:35;5.80;;;3.37;;
9974;SDS011;5028;50.974;4.968;2023-06-19T01:45:07;4.77;;;3.10;;
9974;SDS011;5028;50.974;4.968;2023-06-19T01:47:36;3.60;;;3.30;;
9974;SDS011;5028;50.974;4.968;2023-06-19T01:50:05;3.87;;;3.27;;
9974;SDS011;5028;50.974;4.968;2023-06-19T01:52:37;3.10;;;2.90;;
9974;SDS011;5028;50.974;4.968;2023-06-19T01:55:06;4.73;;;3.20;;
9974;SDS011;5028;50.974;4.968;2023-06-19T01:57:35;3.47;;;3.17;;
9974;SDS011;5028;50.974;4.968;2023-06-19T02:00:04;4.50;;;3.00;;
9974;SDS011;5028;50.974;4.968;2023-06-19T02:02:36;3.50;;;3.20;;
9974;SDS011;5028;50.974;4.968;2023-06-19T02:05:06;4.47;;;3.43;;
9974;SDS011;5028;50.974;4.968;2023-06-19T02:07:34;4.23;;;3.30;;
9974;SDS011;5028;50.974;4.968;2023-06-19T02:10:05;2.90;;;2.70;;
9974;SDS011;5028;50.974;4.968;2023-06-19T02:12:34;4.13;;;3.10;;
9974;SDS011;5028;50.974;4.968;2023-06-19T02:15:02;4.80;;;3.30;;
9974;SDS011;5028;50.974;4.968;2023-06-19T02:17:31;4.03;;;3.10;;
9974;SDS011;5028;50.974;4.968;2023-06-19T02:20:00;3.20;;;2.90;;
9974;SDS011;5028;50.974;4.968;2023-06-19T02:22:31;4.80;;;3.27;;
9974;SDS011;5028;50.974;4.968;2023-06-19T02:25:02;4.57;;;3.20;;
9974;SDS011;5028;50.974;4.968;2023-06-19T02:27:31;3.37;;;3.07;;
9974;SDS011;5028;50.974;4.968;2023-06-19T02:29:59;3.30;;;3.00;;
9974;SDS011;5028;50.974;4.968;2023-06-19T02:32:28;2.80;;;2.60;;
9974;SDS011;5028;50.974;4.968;2023-06-19T02:34:57;3.10;;;2.90;;
9974;SDS011;5028;50.974;4.968;2023-06-19T02:37:25;4.20;;;3.30;;
9974;SDS011;5028;50.974;4.968;2023-06-19T02:39:55;3.03;;;2.80;;
9974;SDS011;5028;50.974;4.968;2023-06-19T02:42:25;3.00;;;2.80;;
9974;SDS011;5028;50.974;4.968;2023-06-19T02:44:53;3.83;;;2.97;;
9974;SDS011;5028;50.974;4.968;2023-06-19T02:47:29;3.73;;;3.17;;
9974;SDS011;5028;50.974;4.968;2023-06-19T02:49:58;4.30;;;3.20;;
9974;SDS011;5028;50.974;4.968;2023-06-19T02:52:28;3.80;;;3.03;;
9974;SDS011;5028;50.974;4.968;2023-06-19T02:54:57;3.87;;;3.07;;
9974;SDS011;5028;50.974;4.968;2023-06-19T02:57:27;3.53;;;3.30;;
9974;SDS011;5028;50.974;4.968;2023-06-19T02:59:55;4.20;;;3.10;;
9974;SDS011;5028;50.974;4.968;2023-06-19T03:02:23;4.00;;;3.07;;
9974;SDS011;5028;50.974;4.968;2023-06-19T03:04:52;5.43;;;3.33;;
9974;SDS011;5028;50.974;4.968;2023-06-19T03:07:20;3.40;;;3.10;;
9974;SDS011;5028;50.974;4.968;2023-06-19T03:09:49;4.50;;;3.57;;
9974;SDS011;5028;50.974;4.968;2023-06-19T03:12:17;6.10;;;3.40;;
9974;SDS011;5028;50.974;4.968;2023-06-19T03:14:46;3.40;;;3.07;;
9974;SDS011;5028;50.974;4.968;2023-06-19T03:17:15;4.40;;;3.27;;
9974;SDS011;5028;50.974;4.968;2023-06-19T03:19:43;3.27;;;2.97;;
9974;SDS011;5028;50.974;4.968;2023-06-19T03:22:12;4.20;;;3.70;;
9974;SDS011;5028;50.974;4.968;2023-06-19T03:24:40;4.03;;;3.37;;
9974;SDS011;5028;50.974;4.968;2023-06-19T03:27:08;4.37;;;3.40;;
9974;SDS011;5028;50.974;4.968;2023-06-19T03:29:37;4.50;;;3.53;;
9974;SDS011;5028;50.974;4.968;2023-06-19T03:32:07;4.60;;;3.60;;
9974;SDS011;5028;50.974;4.968;2023-06-19T03:34:36;4.10;;;3.60;;
9974;SDS011;5028;50.974;4.968;2023-06-19T03:37:04;4.50;;;4.00;;
9974;SDS011;5028;50.974;4.968;2023-06-19T03:39:33;5.93;;;4.10;;
9974;SDS011;5028;50.974;4.968;2023-06-19T03:42:01;3.97;;;3.60;;
9974;SDS011;5028;50.974;4.968;2023-06-19T03:44:29;5.47;;;3.50;;
9974;SDS011;5028;50.974;4.968;2023-06-19T03:46:57;4.93;;;3.50;;
9974;SDS011;5028;50.974;4.968;2023-06-19T03:49:27;4.03;;;3.60;;
9974;SDS011;5028;50.974;4.968;2023-06-19T03:51:57;5.73;;;3.50;;
9974;SDS011;5028;50.974;4.968;2023-06-19T03:54:26;4.30;;;3.80;;
9974;SDS011;5028;50.974;4.968;2023-06-19T03:56:55;4.27;;;3.40;;
9974;SDS011;5028;50.974;4.968;2023-06-19T03:59:23;6.53;;;4.00;;
9974;SDS011;5028;50.974;4.968;2023-06-19T04:01:53;4.20;;;3.33;;
9974;SDS011;5028;50.974;4.968;2023-06-19T04:04:21;4.13;;;3.83;;
9974;SDS011;5028;50.974;4.968;2023-06-19T04:06:51;4.47;;;4.03;;
9974;SDS011;5028;50.974;4.968;2023-06-19T04:09:20;5.50;;;3.97;;
9974;SDS011;5028;50.974;4.968;2023-06-19T04:11:48;5.63;;;3.80;;
9974;SDS011;5028;50.974;4.968;2023-06-19T04:14:16;4.90;;;4.10;;
9974;SDS011;5028;50.974;4.968;2023-06-19T04:16:45;4.40;;;4.00;;
9974;SDS011;5028;50.974;4.968;2023-06-19T04:19:13;6.53;;;4.23;;
9974;SDS011;5028;50.974;4.968;2023-06-19T04:21:42;7.03;;;6.30;;
9974;SDS011;5028;50.974;4.968;2023-06-19T04:24:11;7.57;;;5.27;;
9974;SDS011;5028;50.974;4.968;2023-06-19T04:26:40;4.30;;;3.90;;
9974;SDS011;5028;50.974;4.968;2023-06-19T04:29:09;5.73;;;4.40;;
9974;SDS011;5028;50.974;4.968;2023-06-19T04:31:43;4.87;;;4.27;;
9974;SDS011;5028;50.974;4.968;2023-06-19T04:34:14;4.47;;;4.00;;
9974;SDS011;5028;50.974;4.968;2023-06-19T04:36:43;4.17;;;3.73;;
9974;SDS011;5028;50.974;4.968;2023-06-19T04:39:13;4.40;;;4.00;;
9974;SDS011;5028;50.974;4.968;2023-06-19T04:41:42;4.83;;;4.43;;
9974;SDS011;5028;50.974;4.968;2023-06-19T04:44:11;4.90;;;4.23;;
9974;SDS011;5028;50.974;4.968;2023-06-19T04:46:40;4.80;;;4.40;;
9974;SDS011;5028;50.974;4.968;2023-06-19T04:49:08;5.43;;;4.93;;
9974;SDS011;5028;50.974;4.968;2023-06-19T04:51:36;5.43;;;4.93;;
9974;SDS011;5028;50.974;4.968;2023-06-19T04:54:05;5.70;;;5.17;;
9974;SDS011;5028;50.974;4.968;2023-06-19T04:56:34;6.40;;;5.20;;
9974;SDS011;5028;50.974;4.968;2023-06-19T04:59:03;6.27;;;5.73;;
9974;SDS011;5028;50.974;4.968;2023-06-19T05:01:31;6.87;;;6.27;;
9974;SDS011;5028;50.974;4.968;2023-06-19T05:04:00;7.53;;;6.77;;
9974;SDS011;5028;50.974;4.968;2023-06-19T05:06:28;7.70;;;6.93;;
9974;SDS011;5028;50.974;4.968;2023-06-19T05:08:56;7.53;;;6.57;;
9974;SDS011;5028;50.974;4.968;2023-06-19T05:11:24;8.40;;;7.37;;
9974;SDS011;5028;50.974;4.968;2023-06-19T05:13:54;8.63;;;7.83;;
9974;SDS011;5028;50.974;4.968;2023-06-19T05:16:22;8.63;;;7.83;;
9974;SDS011;5028;50.974;4.968;2023-06-19T05:18:51;8.53;;;7.83;;
9974;SDS011;5028;50.974;4.968;2023-06-19T05:21:39;8.17;;;7.33;;
9974;SDS011;5028;50.974;4.968;2023-06-19T05:24:07;8.30;;;7.57;;
9974;SDS011;5028;50.974;4.968;2023-06-19T05:26:36;7.40;;;6.80;;
9974;SDS011;5028;50.974;4.968;2023-06-19T05:29:05;7.63;;;6.93;;
9974;SDS011;5028;50.974;4.968;2023-06-19T05:31:41;6.30;;;5.80;;
9974;SDS011;5028;50.974;4.968;2023-06-19T05:34:10;6.30;;;5.70;;
9974;SDS011;5028;50.974;4.968;2023-06-19T05:36:41;6.20;;;5.40;;
9974;SDS011;5028;50.974;4.968;2023-06-19T05:39:13;5.83;;;5.13;;
9974;SDS011;5028;50.974;4.968;2023-06-19T05:41:41;5.63;;;5.10;;
9974;SDS011;5028;50.974;4.968;2023-06-19T05:44:14;5.10;;;4.70;;
9974;SDS011;5028;50.974;4.968;2023-06-19T05:46:43;4.90;;;4.43;;
9974;SDS011;5028;50.974;4.968;2023-06-19T05:49:14;4.97;;;4.47;;
9974;SDS011;5028;50.974;4.968;2023-06-19T05:51:42;5.50;;;4.70;;
9974;SDS011;5028;50.974;4.968;2023-06-19T05:54:11;5.10;;;4.33;;
9974;SDS011;5028;50.974;4.968;2023-06-19T05:56:39;4.87;;;4.40;;
9974;SDS011;5028;50.974;4.968;2023-06-19T05:59:07;6.10;;;4.37;;
9974;SDS011;5028;50.974;4.968;2023-06-19T06:01:37;4.80;;;4.40;;
9974;SDS011;5028;50.974;4.968;2023-06-19T06:04:05;5.20;;;4.70;;
9974;SDS011;5028;50.974;4.968;2023-06-19T06:06:34;5.83;;;5.00;;
9974;SDS011;5028;50.974;4.968;2023-06-19T06:09:02;5.20;;;4.43;;
9974;SDS011;5028;50.974;4.968;2023-06-19T06:11:31;6.40;;;5.10;;
9974;SDS011;5028;50.974;4.968;2023-06-19T06:13:59;5.23;;;4.80;;
9974;SDS011;5028;50.974;4.968;2023-06-19T06:16:27;9.03;;;5.00;;
9974;SDS011;5028;50.974;4.968;2023-06-19T06:18:57;5.87;;;5.27;;
9974;SDS011;5028;50.974;4.968;2023-06-19T06:21:26;5.53;;;5.03;;
9974;SDS011;5028;50.974;4.968;2023-06-19T06:23:54;5.47;;;4.97;;
9974;SDS011;5028;50.974;4.968;2023-06-19T06:26:22;6.20;;;5.20;;
9974;SDS011;5028;50.974;4.968;2023-06-19T06:28:54;6.50;;;5.33;;
9974;SDS011;5028;50.974;4.968;2023-06-19T06:31:22;6.07;;;5.47;;
9974;SDS011;5028;50.974;4.968;2023-06-19T06:33:52;7.77;;;5.70;;
9974;SDS011;5028;50.974;4.968;2023-06-19T06:36:23;6.63;;;5.80;;
9974;SDS011;5028;50.974;4.968;2023-06-19T06:39:02;6.40;;;5.63;;
9974;SDS011;5028;50.974;4.968;2023-06-19T06:41:30;6.33;;;5.83;;
9974;SDS011;5028;50.974;4.968;2023-06-19T06:43:58;6.20;;;5.67;;
9974;SDS011;5028;50.974;4.968;2023-06-19T06:46:28;5.90;;;5.30;;
9974;SDS011;5028;50.974;4.968;2023-06-19T06:48:56;6.43;;;5.60;;
9974;SDS011;5028;50.974;4.968;2023-06-19T06:51:26;6.20;;;5.70;;
9974;SDS011;5028;50.974;4.968;2023-06-19T06:53:56;5.70;;;5.20;;
9974;SDS011;5028;50.974;4.968;2023-06-19T06:56:25;5.40;;;5.00;;
9974;SDS011;5028;50.974;4.968;2023-06-19T06:58:53;6.07;;;5.57;;
9974;SDS011;5028;50.974;4.968;2023-06-19T07:01:21;5.53;;;5.03;;
9974;SDS011;5028;50.974;4.968;2023-06-19T07:03:49;5.83;;;5.23;;
9974;SDS011;5028;50.974;4.968;2023-06-19T07:06:20;5.20;;;4.70;;
9974;SDS011;5028;50.974;4.968;2023-06-19T07:08:50;5.67;;;4.90;;
9974;SDS011;5028;50.974;4.968;2023-06-19T07:11:19;5.27;;;4.77;;
9974;SDS011;5028;50.974;4.968;2023-06-19T07:13:49;4.87;;;4.43;;
9974;SDS011;5028;50.974;4.968;2023-06-19T07:16:18;5.93;;;5.33;;
9974;SDS011;5028;50.974;4.968;2023-06-19T07:18:46;5.13;;;4.57;;
9974;SDS011;5028;50.974;4.968;2023-06-19T07:21:14;5.83;;;5.33;;
9974;SDS011;5028;50.974;4.968;2023-06-19T07:23:43;5.03;;;4.63;;
9974;SDS011;5028;50.974;4.968;2023-06-19T07:26:15;5.70;;;5.10;;
9974;SDS011;5028;50.974;4.968;2023-06-19T07:28:44;5.20;;;4.80;;
9974;SDS011;5028;50.974;4.968;2023-06-19T07:31:12;5.67;;;5.17;;
9974;SDS011;5028;50.974;4.968;2023-06-19T07:33:40;6.20;;;4.93;;
9974;SDS011;5028;50.974;4.968;2023-06-19T07:36:08;5.53;;;5.03;;
9974;SDS011;5028;50.974;4.968;2023-06-19T07:38:40;5.10;;;4.70;;
9974;SDS011;5028;50.974;4.968;2023-06-19T07:41:09;5.53;;;5.03;;
9974;SDS011;5028;50.974;4.968;2023-06-19T07:43:38;5.53;;;4.90;;
9974;SDS011;5028;50.974;4.968;2023-06-19T07:46:07;6.10;;;5.20;;
9974;SDS011;5028;50.974;4.968;2023-06-19T07:48:35;6.43;;;4.93;;
9974;SDS011;5028;50.974;4.968;2023-06-19T07:51:03;6.03;;;5.50;;
9974;SDS011;5028;50.974;4.968;2023-06-19T07:53:32;5.83;;;5.20;;
9974;SDS011;5028;50.974;4.968;2023-06-19T07:56:00;8.53;;;6.20;;
9974;SDS011;5028;50.974;4.968;2023-06-19T07:58:28;6.47;;;5.87;;
9974;SDS011;5028;50.974;4.968;2023-06-19T08:00:58;6.93;;;5.37;;
9974;SDS011;5028;50.974;4.968;2023-06-19T08:03:27;5.90;;;5.33;;
9974;SDS011;5028;50.974;4.968;2023-06-19T08:05:56;6.03;;;5.43;;
9974;SDS011;5028;50.974;4.968;2023-06-19T08:08:24;6.57;;;5.97;;
9974;SDS011;5028;50.974;4.968;2023-06-19T08:10:53;6.40;;;5.90;;
9974;SDS011;5028;50.974;4.968;2023-06-19T08:13:21;8.33;;;6.50;;
9974;SDS011;5028;50.974;4.968;2023-06-19T08:15:49;7.37;;;6.67;;
9974;SDS011;5028;50.974;4.968;2023-06-19T08:18:20;7.27;;;6.60;;
9974;SDS011;5028;50.974;4.968;2023-06-19T08:20:57;7.00;;;6.30;;
9974;SDS011;5028;50.974;4.968;2023-06-19T08:23:26;6.90;;;6.27;;
9974;SDS011;5028;50.974;4.968;2023-06-19T08:25:55;8.20;;;7.40;;
9974;SDS011;5028;50.974;4.968;2023-06-19T08:28:23;8.03;;;7.23;;
9974;SDS011;5028;50.974;4.968;2023-06-19T08:30:51;7.77;;;6.73;;
9974;SDS011;5028;50.974;4.968;2023-06-19T08:33:21;7.13;;;6.40;;
9974;SDS011;5028;50.974;4.968;2023-06-19T08:35:50;6.60;;;6.00;;
9974;SDS011;5028;50.974;4.968;2023-06-19T08:38:19;6.93;;;6.33;;
9974;SDS011;5028;50.974;4.968;2023-06-19T08:40:48;7.50;;;6.07;;
9974;SDS011;5028;50.974;4.968;2023-06-19T08:43:16;7.17;;;6.50;;
9974;SDS011;5028;50.974;4.968;2023-06-19T08:45:51;8.07;;;7.37;;
9974;SDS011;5028;50.974;4.968;2023-06-19T08:48:24;7.60;;;6.90;;
9974;SDS011;5028;50.974;4.968;2023-06-19T08:50:52;6.93;;;6.23;;
9974;SDS011;5028;50.974;4.968;2023-06-19T08:53:22;6.47;;;5.87;;
9974;SDS011;5028;50.974;4.968;2023-06-19T08:55:50;6.57;;;5.97;;
9974;SDS011;5028;50.974;4.968;2023-06-19T08:58:21;7.87;;;5.67;;
9974;SDS011;5028;50.974;4.968;2023-06-19T09:00:49;7.23;;;6.30;;
9974;SDS011;5028;50.974;4.968;2023-06-19T09:03:19;6.67;;;6.07;;
9974;SDS011;5028;50.974;4.968;2023-06-19T09:05:50;6.47;;;5.83;;
9974;SDS011;5028;50.974;4.968;2023-06-19T09:08:24;6.17;;;5.57;;
9974;SDS011;5028;50.974;4.968;2023-06-19T09:10:56;7.20;;;5.40;;
9974;SDS011;5028;50.974;4.968;2023-06-19T09:13:25;6.33;;;5.63;;
9974;SDS011;5028;50.974;4.968;2023-06-19T09:15:58;6.33;;;5.70;;
9974;SDS011;5028;50.974;4.968;2023-06-19T09:18:29;6.27;;;5.60;;
9974;SDS011;5028;50.974;4.968;2023-06-19T09:21:00;5.83;;;5.30;;
9974;SDS011;5028;50.974;4.968;2023-06-19T09:23:28;6.20;;;5.60;;
9974;SDS011;5028;50.974;4.968;2023-06-19T09:25:57;6.17;;;5.20;;
9974;SDS011;5028;50.974;4.968;2023-06-19T09:28:27;5.90;;;5.40;;
9974;SDS011;5028;50.974;4.968;2023-06-19T09:30:56;6.27;;;5.57;;
9974;SDS011;5028;50.974;4.968;2023-06-19T09:33:27;6.00;;;5.00;;
9974;SDS011;5028;50.974;4.968;2023-06-19T09:35:57;8.23;;;5.73;;
9974;SDS011;5028;50.974;4.968;2023-06-19T09:38:29;5.73;;;5.13;;
9974;SDS011;5028;50.974;4.968;2023-06-19T09:41:00;5.47;;;4.97;;
9974;SDS011;5028;50.974;4.968;2023-06-19T09:43:33;6.07;;;5.47;;
9974;SDS011;5028;50.974;4.968;2023-06-19T09:46:03;6.60;;;5.90;;
9974;SDS011;5028;50.974;4.968;2023-06-19T09:48:33;6.45;;;5.85;;
9974;SDS011;5028;50.974;4.968;2023-06-19T09:51:08;6.63;;;5.97;;
9974;SDS011;5028;50.974;4.968;2023-06-19T09:53:39;6.83;;;5.43;;
9974;SDS011;5028;50.974;4.968;2023-06-19T09:56:09;5.05;;;4.55;;
9974;SDS011;5028;50.974;4.968;2023-06-19T09:58:38;5.53;;;5.03;;
9974;SDS011;5028;50.974;4.968;2023-06-19T10:01:08;5.75;;;5.00;;
9974;SDS011;5028;50.974;4.968;2023-06-19T10:03:37;5.37;;;4.87;;
9974;SDS011;5028;50.974;4.968;2023-06-19T10:06:12;5.43;;;4.57;;
9974;SDS011;5028;50.974;4.968;2023-06-19T10:08:43;7.88;;;4.50;;
9974;SDS011;5028;50.974;4.968;2023-06-19T10:11:13;5.72;;;5.20;;
9974;SDS011;5028;50.974;4.968;2023-06-19T10:13:42;5.70;;;5.20;;
9974;SDS011;5028;50.974;4.968;2023-06-19T10:16:20;6.82;;;5.40;;
9974;SDS011;5028;50.974;4.968;2023-06-19T10:18:51;6.10;;;4.90;;
9974;SDS011;5028;50.974;4.968;2023-06-19T10:21:21;5.88;;;5.07;;
9974;SDS011;5028;50.974;4.968;2023-06-19T10:23:53;5.57;;;5.00;;
9974;SDS011;5028;50.974;4.968;2023-06-19T10:26:29;6.75;;;4.43;;
9974;SDS011;5028;50.974;4.968;2023-06-19T10:28:59;5.40;;;4.03;;
9974;SDS011;5028;50.974;4.968;2023-06-19T10:31:31;7.05;;;4.47;;
9974;SDS011;5028;50.974;4.968;2023-06-19T10:33:59;5.32;;;4.60;;
9974;SDS011;5028;50.974;4.968;2023-06-19T10:36:32;5.25;;;4.75;;
9974;SDS011;5028;50.974;4.968;2023-06-19T10:39:00;6.88;;;5.15;;
9974;SDS011;5028;50.974;4.968;2023-06-19T10:41:29;5.88;;;5.28;;
9974;SDS011;5028;50.974;4.968;2023-06-19T10:43:58;4.82;;;4.43;;
9974;SDS011;5028;50.974;4.968;2023-06-19T10:46:29;5.38;;;4.72;;
9974;SDS011;5028;50.974;4.968;2023-06-19T10:49:00;5.57;;;4.90;;
9974;SDS011;5028;50.974;4.968;2023-06-19T10:51:33;6.30;;;5.03;;
9974;SDS011;5028;50.974;4.968;2023-06-19T10:54:03;6.45;;;4.93;;
9974;SDS011;5028;50.974;4.968;2023-06-19T10:56:32;5.80;;;4.35;;
9974;SDS011;5028;50.974;4.968;2023-06-19T10:59:02;7.60;;;4.72;;
9974;SDS011;5028;50.974;4.968;2023-06-19T11:01:33;5.47;;;3.72;;
9974;SDS011;5028;50.974;4.968;2023-06-19T11:04:04;6.18;;;3.88;;
9974;SDS011;5028;50.974;4.968;2023-06-19T11:06:35;7.78;;;4.38;;
9974;SDS011;5028;50.974;4.968;2023-06-19T11:09:05;6.43;;;4.13;;
9974;SDS011;5028;50.974;4.968;2023-06-19T11:11:36;4.05;;;3.70;;
9974;SDS011;5028;50.974;4.968;2023-06-19T11:14:06;4.47;;;4.07;;
9974;SDS011;5028;50.974;4.968;2023-06-19T11:16:37;6.80;;;4.00;;
9974;SDS011;5028;50.974;4.968;2023-06-19T11:19:08;5.03;;;3.95;;
9974;SDS011;5028;50.974;4.968;2023-06-19T11:21:39;6.05;;;3.95;;
9974;SDS011;5028;50.974;4.968;2023-06-19T11:24:10;5.22;;;4.22;;
9974;SDS011;5028;50.974;4.968;2023-06-19T11:26:40;5.28;;;4.00;;
9974;SDS011;5028;50.974;4.968;2023-06-19T11:29:15;4.65;;;4.10;;
9974;SDS011;5028;50.974;4.968;2023-06-19T11:31:45;5.63;;;4.30;;
9974;SDS011;5028;50.974;4.968;2023-06-19T11:34:14;5.15;;;4.18;;
9974;SDS011;5028;50.974;4.968;2023-06-19T11:36:45;6.10;;;3.53;;
9974;SDS011;5028;50.974;4.968;2023-06-19T11:39:15;4.93;;;3.97;;
9974;SDS011;5028;50.974;4.968;2023-06-19T11:41:44;5.75;;;4.30;;
9974;SDS011;5028;50.974;4.968;2023-06-19T11:44:14;6.88;;;4.57;;
9974;SDS011;5028;50.974;4.968;2023-06-19T11:46:43;5.10;;;3.92;;
9974;SDS011;5028;50.974;4.968;2023-06-19T11:49:14;5.40;;;4.28;;
9974;SDS011;5028;50.974;4.968;2023-06-19T11:51:46;7.82;;;4.10;;
9974;SDS011;5028;50.974;4.968;2023-06-19T11:54:15;5.07;;;4.30;;
9974;SDS011;5028;50.974;4.968;2023-06-19T11:56:44;6.40;;;3.95;;
9974;SDS011;5028;50.974;4.968;2023-06-19T11:59:14;8.68;;;4.40;;
9974;SDS011;5028;50.974;4.968;2023-06-19T12:01:43;6.03;;;4.15;;
9974;SDS011;5028;50.974;4.968;2023-06-19T12:04:11;5.55;;;4.05;;
9974;SDS011;5028;50.974;4.968;2023-06-19T12:06:42;4.45;;;3.78;;
9974;SDS011;5028;50.974;4.968;2023-06-19T12:09:12;4.63;;;4.22;;
9974;SDS011;5028;50.974;4.968;2023-06-19T12:11:41;5.47;;;3.90;;
9974;SDS011;5028;50.974;4.968;2023-06-19T12:14:10;4.78;;;3.70;;
9974;SDS011;5028;50.974;4.968;2023-06-19T12:16:39;4.57;;;4.10;;
9974;SDS011;5028;50.974;4.968;2023-06-19T12:19:08;4.78;;;4.03;;
9974;SDS011;5028;50.974;4.968;2023-06-19T12:21:45;5.03;;;4.18;;
9974;SDS011;5028;50.974;4.968;2023-06-19T12:24:15;6.15;;;3.92;;
9974;SDS011;5028;50.974;4.968;2023-06-19T12:26:44;4.20;;;3.63;;
9974;SDS011;5028;50.974;4.968;2023-06-19T12:29:12;4.57;;;3.80;;
9974;SDS011;5028;50.974;4.968;2023-06-19T12:31:43;4.38;;;3.97;;
9974;SDS011;5028;50.974;4.968;2023-06-19T12:34:12;4.20;;;3.80;;
9974;SDS011;5028;50.974;4.968;2023-06-19T12:36:55;5.03;;;4.10;;
9974;SDS011;5028;50.974;4.968;2023-06-19T12:39:26;4.25;;;3.90;;
9974;SDS011;5028;50.974;4.968;2023-06-19T12:41:55;4.90;;;3.75;;
9974;SDS011;5028;50.974;4.968;2023-06-19T12:44:24;4.93;;;3.90;;
9974;SDS011;5028;50.974;4.968;2023-06-19T12:46:53;3.92;;;3.42;;
9974;SDS011;5028;50.974;4.968;2023-06-19T12:49:22;3.88;;;3.47;;
9974;SDS011;5028;50.974;4.968;2023-06-19T12:51:50;4.00;;;3.70;;
9974;SDS011;5028;50.974;4.968;2023-06-19T12:54:19;4.65;;;3.78;;
9974;SDS011;5028;50.974;4.968;2023-06-19T12:56:49;4.30;;;3.67;;
9974;SDS011;5028;50.974;4.968;2023-06-19T12:59:18;4.07;;;3.67;;
9974;SDS011;5028;50.974;4.968;2023-06-19T13:01:47;5.75;;;3.67;;
9974;SDS011;5028;50.974;4.968;2023-06-19T13:04:15;5.25;;;3.85;;
9974;SDS011;5028;50.974;4.968;2023-06-19T13:06:45;4.15;;;3.70;;
9974;SDS011;5028;50.974;4.968;2023-06-19T13:09:13;4.03;;;3.33;;
9974;SDS011;5028;50.974;4.968;2023-06-19T13:11:42;5.55;;;3.75;;
9974;SDS011;5028;50.974;4.968;2023-06-19T13:14:12;4.72;;;3.60;;
9974;SDS011;5028;50.974;4.968;2023-06-19T13:16:41;3.88;;;3.58;;
9974;SDS011;5028;50.974;4.968;2023-06-19T13:19:12;4.10;;;3.40;;
9974;SDS011;5028;50.974;4.968;2023-06-19T13:21:42;3.60;;;3.30;;
9974;SDS011;5028;50.974;4.968;2023-06-19T13:24:11;4.00;;;3.60;;
9974;SDS011;5028;50.974;4.968;2023-06-19T13:26:40;3.67;;;3.22;;
9974;SDS011;5028;50.974;4.968;2023-06-19T13:29:09;4.07;;;3.67;;
9974;SDS011;5028;50.974;4.968;2023-06-19T13:31:39;5.10;;;3.92;;
9974;SDS011;5028;50.974;4.968;2023-06-19T13:34:08;3.55;;;3.25;;
9974;SDS011;5028;50.974;4.968;2023-06-19T13:36:37;3.83;;;3.53;;
9974;SDS011;5028;50.974;4.968;2023-06-19T13:39:06;3.80;;;3.40;;
9974;SDS011;5028;50.974;4.968;2023-06-19T13:41:35;3.85;;;3.50;;
9974;SDS011;5028;50.974;4.968;2023-06-19T13:44:04;3.78;;;3.47;;
9974;SDS011;5028;50.974;4.968;2023-06-19T13:46:33;4.45;;;3.58;;
9974;SDS011;5028;50.974;4.968;2023-06-19T13:49:03;4.35;;;3.33;;
9974;SDS011;5028;50.974;4.968;2023-06-19T13:51:32;4.18;;;3.25;;
9974;SDS011;5028;50.974;4.968;2023-06-19T13:54:00;5.03;;;3.55;;
9974;SDS011;5028;50.974;4.968;2023-06-19T13:56:31;4.90;;;3.47;;
9974;SDS011;5028;50.974;4.968;2023-06-19T13:59:00;4.43;;;3.40;;
9974;SDS011;5028;50.974;4.968;2023-06-19T14:01:29;5.22;;;3.50;;
9974;SDS011;5028;50.974;4.968;2023-06-19T14:03:58;3.85;;;3.45;;
9974;SDS011;5028;50.974;4.968;2023-06-19T14:06:28;4.55;;;3.45;;
9974;SDS011;5028;50.974;4.968;2023-06-19T14:08:57;5.20;;;3.38;;
9974;SDS011;5028;50.974;4.968;2023-06-19T14:11:26;4.45;;;3.40;;
9974;SDS011;5028;50.974;4.968;2023-06-19T14:13:56;3.75;;;3.25;;
9974;SDS011;5028;50.974;4.968;2023-06-19T14:16:25;3.70;;;3.13;;
9974;SDS011;5028;50.974;4.968;2023-06-19T14:18:53;6.22;;;3.58;;
9974;SDS011;5028;50.974;4.968;2023-06-19T14:21:22;6.55;;;3.60;;
9974;SDS011;5028;50.974;4.968;2023-06-19T14:23:52;4.82;;;3.50;;
9974;SDS011;5028;50.974;4.968;2023-06-19T14:26:22;3.85;;;3.10;;
9974;SDS011;5028;50.974;4.968;2023-06-19T14:28:51;3.33;;;3.03;;
9974;SDS011;5028;50.974;4.968;2023-06-19T14:31:23;3.30;;;3.00;;
9974;SDS011;5028;50.974;4.968;2023-06-19T14:33:52;6.03;;;3.40;;
9974;SDS011;5028;50.974;4.968;2023-06-19T14:36:22;4.53;;;3.15;;
9974;SDS011;5028;50.974;4.968;2023-06-19T14:38:50;5.80;;;3.33;;
9974;SDS011;5028;50.974;4.968;2023-06-19T14:41:21;4.22;;;3.72;;
9974;SDS011;5028;50.974;4.968;2023-06-19T14:43:50;3.70;;;3.40;;
9974;SDS011;5028;50.974;4.968;2023-06-19T14:46:19;4.68;;;3.40;;
9974;SDS011;5028;50.974;4.968;2023-06-19T14:49:04;3.47;;;3.17;;
9974;SDS011;5028;50.974;4.968;2023-06-19T14:51:33;3.60;;;3.30;;
9974;SDS011;5028;50.974;4.968;2023-06-19T14:54:01;3.40;;;3.10;;
9974;SDS011;5028;50.974;4.968;2023-06-19T14:56:32;4.85;;;3.28;;
9974;SDS011;5028;50.974;4.968;2023-06-19T14:59:04;3.45;;;3.15;;
9974;SDS011;5028;50.974;4.968;2023-06-19T15:01:33;3.55;;;3.25;;
9974;SDS011;5028;50.974;4.968;2023-06-19T15:04:10;3.55;;;2.92;;
9974;SDS011;5028;50.974;4.968;2023-06-19T15:06:40;3.70;;;3.17;;
9974;SDS011;5028;50.974;4.968;2023-06-19T15:09:08;3.65;;;3.35;;
9974;SDS011;5028;50.974;4.968;2023-06-19T15:11:39;3.60;;;3.30;;
9974;SDS011;5028;50.974;4.968;2023-06-19T15:14:08;3.88;;;3.55;;
9974;SDS011;5028;50.974;4.968;2023-06-19T15:16:37;3.80;;;3.35;;
9974;SDS011;5028;50.974;4.968;2023-06-19T15:19:07;3.78;;;3.47;;
9974;SDS011;5028;50.974;4.968;2023-06-19T15:21:36;3.53;;;3.22;;
9974;SDS011;5028;50.974;4.968;2023-06-19T15:24:05;4.00;;;3.60;;
9974;SDS011;5028;50.974;4.968;2023-06-19T15:26:35;4.40;;;3.63;;
9974;SDS011;5028;50.974;4.968;2023-06-19T15:29:07;3.75;;;3.45;;
9974;SDS011;5028;50.974;4.968;2023-06-19T15:31:36;6.22;;;3.50;;